Time;durP1;ratioP1;P1;durP2;ratioP2;P2;SDS_P1;SDS_P2;PMS_P1;PMS_P2;Temp;Humidity;BMP_temperature;BMP_pressure;BME280_temperature;BME280_humidity;BME280_pressure;Samples;Min_cycle;Max_cycle;Signal;HPM_P1;HPM_P2
2022/03/03 00:01:02;;;;;;;4.22;2.85;;;;;;;-145.06;0.00;60892.56;4840044;28;20030;-91
2022/03/03 00:03:41;;;;;;;4.85;2.88;;;;;;;-145.06;0.00;60892.56;4841136;28;20034;-93
2022/03/03 00:06:21;;;;;;;4.90;2.50;;;;;;;5.49;0.00;60892.56;4841900;28;20026;-93
2022/03/03 00:09:00;;;;;;;;;;;;;;;4.19;0.00;60892.56;4838595;28;20027;-93
2022/03/03 00:11:39;;;;;;;3.30;2.50;;;;;;;21.08;0.00;60892.56;4831088;28;19913;-93
2022/03/03 00:14:18;;;;;;;4.10;2.63;;;;;;;-145.06;0.00;60892.56;4837692;28;20026;-92
2022/03/03 00:17:01;;;;;;;3.80;2.60;;;;;;;187.52;0.00;60892.56;4841140;28;20033;-91
2022/03/03 00:19:40;;;;;;;4.82;2.70;;;;;;;3.95;0.00;60892.56;4840128;28;20038;-93
2022/03/03 00:22:20;;;;;;;;;;;;;;;3.92;0.00;60892.56;4836892;28;20038;-91
2022/03/03 00:24:59;;;;;;;3.78;2.38;;;;;;;-145.06;0.00;60892.56;4839152;28;20248;-92
2022/03/03 00:27:38;;;;;;;4.50;2.45;;;;;;;-145.06;0.00;60892.56;4840893;28;20030;-92
2022/03/03 00:30:17;;;;;;;3.73;2.33;;;;;;;-145.06;0.00;60892.56;4840077;28;20045;-92
2022/03/03 00:32:56;;;;;;;3.65;2.65;;;;;;;-145.06;0.00;60892.56;4841545;28;20038;-92
2022/03/03 00:35:36;;;;;;;4.15;2.60;;;;;;;-145.06;0.00;60892.56;4840042;28;20060;-92
2022/03/03 00:38:16;;;;;;;4.28;2.78;;;;;;;-145.06;0.00;60892.56;4841125;28;20034;-92
2022/03/03 00:40:54;;;;;;;4.15;2.55;;;;;;;-145.06;0.00;60892.56;4837338;28;20034;-92
2022/03/03 00:43:34;;;;;;;4.88;2.85;;;;;;;-145.06;0.00;60892.56;4840362;28;20042;-91
2022/03/03 00:46:13;;;;;;;4.45;2.55;;;;;;;-145.06;0.00;60892.56;4840247;28;20480;-90
2022/03/03 00:48:54;;;;;;;4.25;2.65;;;;;;;-145.06;0.00;60892.56;4840790;28;20029;-91
2022/03/03 00:51:34;;;;;;;4.00;2.53;;;;;;;-145.06;0.00;60892.56;4840275;28;20369;-91
2022/03/03 00:54:13;;;;;;;3.55;2.53;;;;;;;-145.06;0.00;60892.56;4828886;28;20113;-92
2022/03/03 00:56:52;;;;;;;4.20;2.65;;;;;;;-145.06;0.00;60892.56;4834941;28;20033;-93
2022/03/03 00:59:31;;;;;;;4.47;2.53;;;;;;;-145.06;0.00;60892.56;4840744;28;20455;-92
2022/03/03 01:02:10;;;;;;;4.17;2.67;;;;;;;-145.06;0.00;60892.56;4843315;28;20033;-92
2022/03/03 01:04:49;;;;;;;4.13;2.53;;;;;;;-145.06;0.00;60892.56;4844433;28;20125;-93
2022/03/03 01:07:28;;;;;;;3.53;2.25;;;;;;;-145.06;0.00;60892.56;4842213;28;20084;-92
2022/03/03 01:10:09;;;;;;;2.92;2.13;;;;;;;-145.06;0.00;60892.56;4842703;28;20436;-91
2022/03/03 01:12:48;;;;;;;4.90;2.53;;;;;;;-145.06;0.00;60892.56;4836694;28;20031;-90
2022/03/03 01:15:27;;;;;;;5.15;2.78;;;;;;;-145.06;0.00;60892.56;4822398;28;20386;-93
2022/03/03 01:18:06;;;;;;;4.25;2.80;;;;;;;-145.06;0.00;60892.56;4827401;28;20030;-91
2022/03/03 01:20:45;;;;;;;3.30;2.40;;;;;;;-145.06;0.00;60892.56;4830522;28;20026;-93
2022/03/03 01:23:25;;;;;;;3.75;2.67;;;;;;;-145.06;0.00;60892.56;4842340;28;20484;-92
2022/03/03 01:26:04;;;;;;;3.40;2.50;;;;;;;-145.06;0.00;60892.56;4844369;28;20030;-92
2022/03/03 01:28:43;;;;;;;4.15;2.80;;;;;;;-145.06;0.00;60892.56;4844888;28;20034;-91
2022/03/03 01:31:22;;;;;;;4.50;2.78;;;;;;;-145.06;0.00;60892.56;4846190;28;20033;-92
2022/03/03 01:34:02;;;;;;;4.32;2.78;;;;;;;-145.06;0.00;60892.56;4865214;28;20022;-92
2022/03/03 01:36:41;;;;;;;4.63;2.47;;;;;;;-145.06;0.00;60892.56;4848145;28;20047;-92
2022/03/03 01:39:19;;;;;;;3.22;2.22;;;;;;;-145.06;0.00;60892.56;4842440;28;20285;-92
2022/03/03 01:41:58;;;;;;;4.72;2.75;;;;;;;-145.06;0.00;60892.56;4844145;28;20033;-91
2022/03/03 01:44:42;;;;;;;3.60;2.50;;;;;;;-145.06;0.00;60892.56;4843721;28;20027;-92
2022/03/03 01:47:23;;;;;;;3.80;2.60;;;;;;;-145.06;0.00;60892.56;4843462;28;20266;-91
2022/03/03 01:50:03;;;;;;;4.38;2.78;;;;;;;-145.06;0.00;60892.56;4843318;28;20487;-93
2022/03/03 01:52:42;;;;;;;4.32;2.58;;;;;;;-145.06;0.00;60892.56;4843349;28;20026;-91
2022/03/03 01:55:22;;;;;;;2.93;2.17;;;;;;;-145.06;0.00;60892.56;4842814;28;20018;-92
2022/03/03 01:58:03;;;;;;;3.50;2.40;;;;;;;-145.06;0.00;60892.56;4843210;28;20121;-91
2022/03/03 02:00:43;;;;;;;3.72;2.38;;;;;;;-145.06;0.00;60892.56;4842642;28;20116;-90
2022/03/03 02:03:22;;;;;;;3.80;2.47;;;;;;;-145.06;0.00;60892.56;4842929;28;20030;-92
2022/03/03 02:06:02;;;;;;;4.47;2.80;;;;;;;2.83;0.00;60892.56;4842372;28;20018;-92
2022/03/03 02:08:41;;;;;;;4.25;2.60;;;;;;;-145.06;0.00;60892.56;4838120;28;20035;-91
2022/03/03 02:11:21;;;;;;;3.85;2.45;;;;;;;2.76;0.00;60892.56;4842588;28;20045;-91
2022/03/03 02:14:02;;;;;;;4.43;2.75;;;;;;;-145.06;0.00;60892.56;4841922;28;20034;-90
2022/03/03 02:16:42;;;;;;;3.30;2.20;;;;;;;-145.06;0.00;60892.56;4842348;28;20545;-92
2022/03/03 02:19:21;;;;;;;4.25;2.63;;;;;;;-145.06;0.00;60892.56;4842305;28;20030;-91
2022/03/03 02:22:00;;;;;;;3.63;2.50;;;;;;;-145.06;0.00;60892.56;4842426;28;20034;-91
2022/03/03 02:24:39;;;;;;;3.85;2.70;;;;;;;-145.06;0.00;60892.56;4841797;28;20483;-91
2022/03/03 02:27:20;;;;;;;4.77;3.07;;;;;;;-145.06;0.00;60892.56;4834932;28;20034;-91
2022/03/03 02:30:00;;;;;;;3.83;2.72;;;;;;;-145.06;0.00;60892.56;4841996;28;20778;-91
2022/03/03 02:32:40;;;;;;;4.95;3.15;;;;;;;-145.06;0.00;60892.56;4842272;28;20025;-92
2022/03/03 02:35:19;;;;;;;4.53;3.20;;;;;;;-145.06;0.00;60892.56;4840797;28;20357;-92
2022/03/03 02:37:58;;;;;;;5.60;3.57;;;;;;;-145.06;0.00;60892.56;4841501;28;20025;-91
2022/03/03 02:40:37;;;;;;;4.23;2.73;;;;;;;-145.06;0.00;60892.56;4833523;28;20064;-91
2022/03/03 02:43:16;;;;;;;3.40;2.65;;;;;;;-145.06;0.00;60892.56;4841323;28;20030;-90
2022/03/03 02:45:55;;;;;;;4.53;3.15;;;;;;;-145.06;0.00;60892.56;4836286;28;20030;-91
2022/03/03 02:48:34;;;;;;;4.28;2.58;;;;;;;-145.06;0.00;60892.56;4841496;28;20025;-91
2022/03/03 02:51:13;;;;;;;3.72;2.45;;;;;;;-145.06;0.00;60892.56;4841403;28;20069;-91
2022/03/03 02:53:52;;;;;;;5.32;2.90;;;;;;;-145.06;0.00;60892.56;4840673;28;20384;-92
2022/03/03 02:56:31;;;;;;;4.60;2.90;;;;;;;-145.06;0.00;60892.56;4841177;28;20038;-91
2022/03/03 02:59:10;;;;;;;3.58;2.40;;;;;;;-145.06;0.00;60892.56;4841131;28;20025;-92
2022/03/03 03:01:49;;;;;;;3.47;2.27;;;;;;;-145.06;0.00;60892.56;4841200;28;20065;-92
2022/03/03 03:04:28;;;;;;;4.03;2.57;;;;;;;-145.06;0.00;60892.56;4821536;28;20305;-93
2022/03/03 03:07:07;;;;;;;3.37;2.50;;;;;;;-145.06;0.00;60892.56;4836583;28;20321;-92
2022/03/03 03:09:47;;;;;;;4.13;2.65;;;;;;;-145.06;0.00;60892.56;4826597;28;20041;-93
2022/03/03 03:12:26;;;;;;;4.40;2.60;;;;;;;-145.06;0.00;60892.56;4840718;28;20368;-92
2022/03/03 03:15:06;;;;;;;3.88;2.50;;;;;;;-145.06;0.00;60892.56;4840587;28;20034;-91
2022/03/03 03:17:45;;;;;;;4.47;2.78;;;;;;;-145.06;0.00;60892.56;4840300;28;20513;-92
2022/03/03 03:20:24;;;;;;;3.58;2.67;;;;;;;-145.06;0.00;60892.56;4840413;28;20038;-90
2022/03/03 03:23:04;;;;;;;4.82;2.78;;;;;;;-145.06;0.00;60892.56;4839841;28;20046;-92
2022/03/03 03:25:43;;;;;;;3.90;2.40;;;;;;;-145.06;0.00;60892.56;4840223;28;20030;-91
2022/03/03 03:28:22;;;;;;;4.03;2.60;;;;;;;-145.06;0.00;60892.56;4840264;28;20480;-92
2022/03/03 03:31:01;;;;;;;4.27;2.70;;;;;;;-145.06;0.00;60892.56;4840163;28;20037;-91
2022/03/03 03:33:40;;;;;;;4.53;2.57;;;;;;;-145.06;0.00;60892.56;4839969;28;20109;-90
2022/03/03 03:36:19;;;;;;;3.73;2.43;;;;;;;-145.06;0.00;60892.56;4838713;28;20038;-90
2022/03/03 03:38:58;;;;;;;4.72;2.72;;;;;;;-145.06;0.00;60892.56;4836221;28;20034;-91
2022/03/03 03:41:37;;;;;;;3.63;2.13;;;;;;;-145.06;0.00;60892.56;4839932;28;20670;-90
2022/03/03 03:44:16;;;;;;;3.92;2.47;;;;;;;-145.06;0.00;60892.56;4839244;28;20033;-90
2022/03/03 03:46:55;;;;;;;3.80;2.40;;;;;;;-145.06;0.00;60892.56;4838743;28;20041;-90
2022/03/03 03:49:35;;;;;;;4.67;2.87;;;;;;;-145.06;0.00;60892.56;4839800;28;20033;-90
2022/03/03 03:52:14;;;;;;;3.92;2.47;;;;;;;-145.06;0.00;60892.56;4839649;28;20574;-89
2022/03/03 03:54:52;;;;;;;5.10;2.55;;;;;;;-145.06;0.00;60892.56;4839142;28;20033;-90
2022/03/03 03:57:32;;;;;;;3.95;2.80;;;;;;;-145.06;0.00;60892.56;4840230;28;20065;-90
2022/03/03 04:00:14;;;;;;;3.88;2.40;;;;;;;-145.06;0.00;60892.56;4839369;28;20042;-90
2022/03/03 04:02:52;;;;;;;3.45;2.70;;;;;;;-145.06;0.00;60892.56;4839638;28;20038;-91
2022/03/03 04:05:32;;;;;;;3.83;2.60;;;;;;;-145.06;0.00;60892.56;4839425;28;20025;-90
2022/03/03 04:08:10;;;;;;;5.00;3.00;;;;;;;-145.06;0.00;60892.56;4839516;28;20037;-90
2022/03/03 04:10:49;;;;;;;4.37;2.80;;;;;;;-145.06;0.00;60892.56;4839514;28;20026;-91
2022/03/03 04:13:29;;;;;;;4.25;2.78;;;;;;;-145.06;0.00;60892.56;4839128;28;20034;-90
2022/03/03 04:16:07;;;;;;;4.75;2.88;;;;;;;-145.06;0.00;60892.56;4839556;28;20112;-93
2022/03/03 04:18:47;;;;;;;5.40;3.15;;;;;;;-145.06;0.00;60892.56;4839221;28;20038;-90
2022/03/03 04:21:26;;;;;;;5.45;3.35;;;;;;;-145.06;0.00;60892.56;4838862;28;20042;-90
2022/03/03 04:24:06;;;;;;;5.13;3.00;;;;;;;10.68;0.00;60892.56;4830664;28;20476;-89
2022/03/03 04:26:44;;;;;;;4.35;3.05;;;;;;;1.56;0.00;60892.56;4839136;28;20033;-89
2022/03/03 04:29:24;;;;;;;5.10;3.07;;;;;;;21.08;0.00;60892.56;4820473;28;20034;-90
2022/03/03 04:32:03;;;;;;;4.50;3.08;;;;;;;-145.06;0.00;60892.56;4837520;28;20037;-89
2022/03/03 04:34:42;;;;;;;3.95;2.42;;;;;;;187.52;0.00;60892.56;4823400;28;20199;-89
2022/03/03 04:37:22;;;;;;;4.22;2.38;;;;;;;-145.06;0.00;60892.56;4837489;28;20112;-90
2022/03/03 04:40:01;;;;;;;4.97;2.58;;;;;;;-145.06;0.00;60892.56;4834300;28;20034;-88
2022/03/03 04:42:40;;;;;;;;;;;;;;;10.68;0.00;60892.56;4839373;28;20041;-89
2022/03/03 04:45:20;;;;;;;3.87;2.30;;;;;;;-145.06;0.00;60892.56;4839425;28;19914;-89
2022/03/03 04:47:59;;;;;;;3.28;2.38;;;;;;;-145.06;0.00;60892.56;4840795;28;20285;-90
2022/03/03 04:50:38;;;;;;;2.90;2.20;;;;;;;-145.06;0.00;60892.56;4856946;28;20031;-90
2022/03/03 04:53:17;;;;;;;2.73;2.07;;;;;;;1.59;0.00;60892.56;4846760;28;20440;-90
2022/03/03 04:55:57;;;;;;;3.60;2.05;;;;;;;-145.06;0.00;60892.56;4832117;28;20038;-89
2022/03/03 04:58:35;;;;;;;;;;;;;;;10.68;0.00;60892.56;4844383;28;20029;-90
2022/03/03 05:01:15;;;;;;;3.20;2.10;;;;;;;1.59;0.00;60892.56;4843956;28;19913;-90
2022/03/03 05:03:54;;;;;;;3.47;2.15;;;;;;;1.51;0.00;60892.56;4836936;28;20538;-89
2022/03/03 05:06:33;;;;;;;3.88;2.30;;;;;;;-145.06;0.00;60892.56;4845019;28;20037;-90
2022/03/03 05:09:14;;;;;;;3.43;2.13;;;;;;;10.68;0.00;60892.56;4839413;28;20033;-90
2022/03/03 05:11:53;;;;;;;3.60;2.38;;;;;;;-145.06;0.00;60892.56;4839024;28;20038;-90
2022/03/03 05:14:32;;;;;;;3.65;2.35;;;;;;;1.40;0.00;60892.56;4843161;28;20030;-89
2022/03/03 05:17:11;;;;;;;3.13;2.20;;;;;;;-145.06;0.00;60892.56;4844569;28;20041;-88
2022/03/03 05:19:50;;;;;;;2.93;2.10;;;;;;;-145.06;0.00;60892.56;4827990;28;20058;-89
2022/03/03 05:22:29;;;;;;;3.38;2.35;;;;;;;-145.06;0.00;60892.56;4844603;28;20033;-91
2022/03/03 05:25:10;;;;;;;3.23;2.40;;;;;;;-145.06;0.00;60892.56;4828903;28;20026;-89
2022/03/03 05:27:50;;;;;;;3.70;2.58;;;;;;;-145.06;0.00;60892.56;4843683;28;20280;-89
2022/03/03 05:30:29;;;;;;;3.95;2.75;;;;;;;10.68;0.00;60892.56;4845564;28;20530;-92
2022/03/03 05:33:08;;;;;;;5.07;3.10;;;;;;;-145.06;0.00;60892.56;4844392;28;20030;-92
2022/03/03 05:35:51;;;;;;;5.30;2.87;;;;;;;-145.06;0.00;60892.56;4843468;28;20029;-91
2022/03/03 05:38:31;;;;;;;5.15;2.80;;;;;;;-145.06;0.00;60892.56;4844159;28;20284;-91
2022/03/03 05:41:11;;;;;;;4.35;2.88;;;;;;;-145.06;0.00;60892.56;4844395;28;20025;-91
2022/03/03 05:43:50;;;;;;;3.95;2.85;;;;;;;-145.06;0.00;60892.56;4844202;28;20029;-91
2022/03/03 05:46:30;;;;;;;4.32;2.95;;;;;;;-145.06;0.00;60892.56;4844178;28;20046;-92
2022/03/03 05:49:10;;;;;;;5.78;3.05;;;;;;;-145.06;0.00;60892.56;4844953;28;20026;-90
2022/03/03 05:51:49;;;;;;;4.20;3.00;;;;;;;-145.06;0.00;60892.56;4844104;28;20369;-92
2022/03/03 05:54:28;;;;;;;4.75;3.15;;;;;;;1.29;0.00;60892.56;4844486;28;20026;-91
2022/03/03 05:57:14;;;;;;;4.05;2.58;;;;;;;-145.06;0.00;60892.56;4844557;28;20037;-91
2022/03/03 05:59:55;;;;;;;5.03;2.83;;;;;;;-145.06;0.00;60892.56;4844662;28;20038;-91
2022/03/03 06:02:35;;;;;;;4.85;2.83;;;;;;;-145.06;0.00;60892.56;4843960;28;20042;-92
2022/03/03 06:05:17;;;;;;;;;;;;;;;-145.06;0.00;60892.56;4844326;28;20026;-92
2022/03/03 06:08:04;;;;;;;5.68;2.67;;;;;;;10.68;0.00;60892.56;4844109;28;20401;-92
2022/03/03 06:10:50;;;;;;;3.85;2.60;;;;;;;-145.06;0.00;60892.56;4840659;28;20373;-92
2022/03/03 06:13:36;;;;;;;4.70;2.67;;;;;;;1.27;0.00;60892.56;4841479;28;20029;-91
2022/03/03 06:16:19;;;;;;;4.10;2.78;;;;;;;1.28;0.00;60892.56;4841655;28;20066;-91
2022/03/03 06:18:59;;;;;;;4.15;2.42;;;;;;;1.30;0.00;60892.56;4840704;28;20487;-91
2022/03/03 06:21:38;;;;;;;;;;;;;;;21.08;0.00;60892.56;4841585;28;20055;-93
2022/03/03 06:24:17;;;;;;;3.95;2.28;;;;;;;-145.06;0.00;60892.56;4840100;28;19996;-92
2022/03/03 06:26:56;;;;;;;3.60;2.63;;;;;;;1.27;0.00;60892.56;4841133;28;20029;-91
2022/03/03 06:29:38;;;;;;;3.67;2.08;;;;;;;-145.06;0.00;60892.56;4840796;28;20101;-91
2022/03/03 06:32:18;;;;;;;3.03;2.42;;;;;;;-145.06;0.00;60892.56;4838631;28;20042;-91
2022/03/03 06:34:57;;;;;;;3.50;2.25;;;;;;;-145.06;0.00;60892.56;4840228;28;20038;-92
2022/03/03 06:37:36;;;;;;;3.78;2.67;;;;;;;-145.06;0.00;60892.56;4838748;28;20030;-91
2022/03/03 06:40:16;;;;;;;3.97;2.35;;;;;;;-145.06;0.00;60892.56;4838037;28;20042;-91
2022/03/03 06:43:00;;;;;;;2.85;2.20;;;;;;;1.32;0.00;60892.56;4835407;28;20042;-90
2022/03/03 06:45:39;;;;;;;4.55;2.45;;;;;;;-145.06;0.00;60892.56;4839038;28;20561;-91
2022/03/03 06:48:18;;;;;;;3.63;2.53;;;;;;;-145.06;0.00;60892.56;4835504;28;20034;-91
2022/03/03 06:51:02;;;;;;;3.85;2.50;;;;;;;-145.06;0.00;60892.56;4840690;28;20508;-91
2022/03/03 06:53:44;;;;;;;4.55;2.42;;;;;;;-145.06;0.00;60892.56;4838109;28;20053;-91
2022/03/03 06:56:27;;;;;;;3.25;2.20;;;;;;;-145.06;0.00;60892.56;4840726;28;20030;-91
2022/03/03 06:59:06;;;;;;;2.78;2.00;;;;;;;-145.06;0.00;60892.56;4840719;28;20065;-91
2022/03/03 07:01:49;;;;;;;3.97;2.15;;;;;;;-145.06;0.00;60892.56;4826641;28;20061;-90
2022/03/03 07:04:29;;;;;;;2.97;2.10;;;;;;;-145.06;0.00;60892.56;4838387;28;20034;-91
2022/03/03 07:07:10;;;;;;;4.10;2.63;;;;;;;-145.06;0.00;60892.56;4837690;28;20030;-91
2022/03/03 07:09:50;;;;;;;4.28;2.85;;;;;;;-145.06;0.00;60892.56;4839772;28;20365;-91
2022/03/03 07:12:29;;;;;;;2.80;2.13;;;;;;;-145.06;0.00;60892.56;4840069;28;20029;-91
2022/03/03 07:15:09;;;;;;;3.08;2.17;;;;;;;1.28;0.00;60892.56;4839392;28;20029;-91
2022/03/03 07:18:10;;;;;;;3.80;2.50;;;;;;;-145.06;0.00;60892.56;4821673;28;20034;-91
2022/03/03 07:21:01;;;;;;;4.28;2.65;;;;;;;-145.06;0.00;60892.56;4833776;28;20026;-92
2022/03/03 07:23:51;;;;;;;5.88;3.13;;;;;;;187.52;0.00;60892.56;4837863;28;20065;-91
2022/03/03 07:26:32;;;;;;;4.72;2.92;;;;;;;-145.06;0.00;60892.56;4839492;28;20030;-91
2022/03/03 07:29:15;;;;;;;4.63;2.72;;;;;;;-145.06;0.00;60892.56;4840280;28;20029;-91
2022/03/03 07:31:56;;;;;;;6.20;3.13;;;;;;;-145.06;0.00;60892.56;4839747;28;20033;-91
2022/03/03 07:34:37;;;;;;;4.38;2.65;;;;;;;-145.06;0.00;60892.56;4831944;28;20038;-91
2022/03/03 07:37:23;;;;;;;4.90;2.83;;;;;;;-145.06;0.00;60892.56;4839831;28;20037;-93
2022/03/03 07:40:06;;;;;;;5.13;2.78;;;;;;;-145.06;0.00;60892.56;4839568;28;20033;-91
2022/03/03 07:42:45;;;;;;;4.45;2.50;;;;;;;1.59;0.00;60892.56;4839490;28;20108;-92
2022/03/03 07:45:26;;;;;;;4.30;2.80;;;;;;;-145.06;0.00;60892.56;4839813;28;20026;-92
2022/03/03 07:48:06;;;;;;;6.63;3.50;;;;;;;-145.06;0.00;60892.56;4839478;28;20026;-91
2022/03/03 07:50:45;;;;;;;4.80;3.08;;;;;;;-145.06;0.00;60892.56;4839529;28;20034;-91
2022/03/03 07:53:23;;;;;;;5.83;2.60;;;;;;;-145.06;0.00;60892.56;4839204;28;20042;-91
2022/03/03 07:56:04;;;;;;;4.47;2.90;;;;;;;-145.06;0.00;60892.56;4839721;28;20381;-91
2022/03/03 07:58:45;;;;;;;6.35;3.20;;;;;;;-145.06;0.00;60892.56;4840013;28;20285;-92
2022/03/03 08:01:24;;;;;;;4.07;2.90;;;;;;;-145.06;0.00;60892.56;4839116;28;20037;-91
2022/03/03 08:04:04;;;;;;;4.88;2.85;;;;;;;-145.06;0.00;60892.56;4849940;28;20046;-90
2022/03/03 08:06:45;;;;;;;3.88;2.50;;;;;;;-145.06;0.00;60892.56;4857488;28;20022;-92
2022/03/03 08:09:30;;;;;;;3.70;2.38;;;;;;;-145.06;0.00;60892.56;4845758;28;20037;-92
2022/03/03 08:12:10;;;;;;;3.58;2.47;;;;;;;-145.06;0.00;60892.56;4836562;28;20109;-92
2022/03/03 08:14:49;;;;;;;4.03;2.50;;;;;;;-145.06;0.00;60892.56;4839392;28;20034;-92
2022/03/03 08:17:30;;;;;;;3.90;2.75;;;;;;;-145.06;0.00;60892.56;4839242;28;20033;-92
2022/03/03 08:20:09;;;;;;;3.15;2.25;;;;;;;-145.06;0.00;60892.56;4839295;28;20022;-91
2022/03/03 08:22:49;;;;;;;4.57;2.75;;;;;;;-145.06;0.00;60892.56;4838524;28;20030;-90
2022/03/03 08:25:30;;;;;;;5.03;2.28;;;;;;;-145.06;0.00;60892.56;4838763;28;20395;-91
2022/03/03 08:28:11;;;;;;;4.68;2.70;;;;;;;-145.06;0.00;60892.56;4838981;28;20057;-92
2022/03/03 08:31:00;;;;;;;4.05;2.60;;;;;;;2.73;0.00;60892.56;4838529;28;20034;-92
2022/03/03 08:34:12;;;;;;;3.28;2.50;;;;;;;-145.06;0.00;60892.56;4838015;28;20038;-92
2022/03/03 08:36:54;;;;;;;4.45;3.00;;;;;;;-145.06;0.00;60892.56;4834839;28;20566;-91
2022/03/03 08:39:38;;;;;;;4.18;2.70;;;;;;;-145.06;0.00;60892.56;4838676;28;20357;-92
2022/03/03 08:42:23;;;;;;;3.70;2.70;;;;;;;3.21;0.00;60892.56;4835918;28;20034;-92
2022/03/03 08:45:06;;;;;;;4.32;3.08;;;;;;;-145.06;0.00;60892.56;4834180;28;20021;-91
2022/03/03 08:48:12;;;;;;;3.95;2.38;;;;;;;-145.06;0.00;60892.56;4838588;28;20041;-91
2022/03/03 08:50:52;;;;;;;4.65;2.70;;;;;;;-145.06;0.00;60892.56;4833240;28;20360;-91
2022/03/03 08:53:31;;;;;;;;;;;;;;;-145.06;0.00;60892.56;4838058;28;20113;-91
2022/03/03 08:56:10;;;;;;;3.50;2.33;;;;;;;-145.06;0.00;60892.56;4835189;28;20352;-91
2022/03/03 08:58:51;;;;;;;4.25;2.50;;;;;;;-145.06;0.00;60892.56;4832431;28;20444;-92
2022/03/03 09:01:30;;;;;;;3.22;2.38;;;;;;;-145.06;0.00;60892.56;4828076;28;20038;-92
2022/03/03 09:04:09;;;;;;;4.33;3.07;;;;;;;-145.06;0.00;60892.56;4837883;28;20053;-91
2022/03/03 09:06:48;;;;;;;3.93;2.47;;;;;;;-145.06;0.00;60892.56;4823602;28;20480;-91
2022/03/03 09:09:27;;;;;;;4.35;2.95;;;;;;;-145.06;0.00;60892.56;4837750;28;20277;-90
2022/03/03 09:12:08;;;;;;;3.47;2.43;;;;;;;-145.06;0.00;60892.56;4837460;28;20038;-91
2022/03/03 09:14:47;;;;;;;3.90;2.53;;;;;;;-145.06;0.00;60892.56;4837128;28;20779;-90
2022/03/03 09:17:26;;;;;;;4.00;2.50;;;;;;;-145.06;0.00;60892.56;4838657;28;20038;-88
2022/03/03 09:20:09;;;;;;;3.77;2.57;;;;;;;-145.06;0.00;60892.56;4837564;28;20495;-89
2022/03/03 09:22:48;;;;;;;3.60;2.30;;;;;;;-145.06;0.00;60892.56;4837834;28;20269;-89
2022/03/03 09:25:27;;;;;;;5.00;2.83;;;;;;;-145.06;0.00;60892.56;4837676;28;20030;-90
2022/03/03 09:28:07;;;;;;;3.08;2.20;;;;;;;-145.06;0.00;60892.56;4837830;28;20018;-91
2022/03/03 09:30:47;;;;;;;4.30;2.60;;;;;;;-145.06;0.00;60892.56;4837662;28;20038;-92
2022/03/03 09:33:28;;;;;;;4.07;2.42;;;;;;;187.52;0.00;60892.56;4837586;28;20105;-90
2022/03/03 09:36:07;;;;;;;3.72;2.67;;;;;;;-145.06;0.00;60892.56;4838523;28;20440;-93
2022/03/03 09:38:46;;;;;;;4.93;2.90;;;;;;;10.68;0.00;60892.56;4837832;28;20033;-91
2022/03/03 09:41:25;;;;;;;4.63;3.17;;;;;;;-145.06;0.00;60892.56;4837892;28;20026;-91
2022/03/03 09:44:04;;;;;;;3.33;2.42;;;;;;;-145.06;0.00;60892.56;4837931;28;20058;-92
2022/03/03 09:46:45;;;;;;;3.45;2.38;;;;;;;-145.06;0.00;60892.56;4841946;28;20034;-92
2022/03/03 09:49:24;;;;;;;4.13;2.58;;;;;;;-145.06;0.00;60892.56;4829735;28;20611;-91
2022/03/03 09:52:11;;;;;;;3.20;2.53;;;;;;;-145.06;0.00;60892.56;4836293;28;20053;-89
2022/03/03 09:54:55;;;;;;;6.47;3.05;;;;;;;5.27;0.00;60892.56;4840805;28;20476;-90
2022/03/03 09:57:35;;;;;;;3.50;2.55;;;;;;;21.08;0.00;60892.56;4841621;28;20034;-89
2022/03/03 10:00:15;;;;;;;3.92;2.72;;;;;;;-145.06;0.00;60892.56;4841420;28;20022;-89
2022/03/03 10:02:56;;;;;;;3.40;2.28;;;;;;;-145.06;0.00;60892.56;4840853;28;20034;-90
2022/03/03 10:05:38;;;;;;;3.50;2.30;;;;;;;-145.06;0.00;60892.56;4841228;28;20030;-91
2022/03/03 10:08:20;;;;;;;3.17;2.30;;;;;;;-145.06;0.00;60892.56;4841168;28;20503;-90
2022/03/03 10:11:04;;;;;;;4.07;2.25;;;;;;;-145.06;0.00;60892.56;4840816;28;20030;-88
2022/03/03 10:13:45;;;;;;;3.63;2.30;;;;;;;-145.06;0.00;60892.56;4832250;28;20536;-91
2022/03/03 10:16:29;;;;;;;3.53;2.45;;;;;;;6.62;0.00;60892.56;4840959;28;20033;-91
2022/03/03 10:19:07;;;;;;;3.90;2.20;;;;;;;-145.06;0.00;60892.56;4840983;28;20041;-91
2022/03/03 10:21:46;;;;;;;3.60;2.42;;;;;;;-145.06;0.00;60892.56;4840742;28;20037;-91
2022/03/03 10:24:29;;;;;;;3.27;2.03;;;;;;;-145.06;0.00;60892.56;4841204;28;20022;-93
2022/03/03 10:27:08;;;;;;;2.85;2.05;;;;;;;-145.06;0.00;60892.56;4840605;28;20029;-90
2022/03/03 10:29:48;;;;;;;5.07;2.22;;;;;;;-145.06;0.00;60892.56;4840510;28;20041;-92
2022/03/03 10:32:27;;;;;;;3.85;2.40;;;;;;;-145.06;0.00;60892.56;4840606;28;20583;-91
2022/03/03 10:35:17;;;;;;;4.25;2.65;;;;;;;-145.06;0.00;60892.56;4840569;28;20030;-91
2022/03/03 10:38:03;;;;;;;4.53;2.08;;;;;;;-145.06;0.00;60892.56;4840029;28;20030;-91
2022/03/03 10:40:43;;;;;;;4.53;2.40;;;;;;;-145.06;0.00;60892.56;4840591;28;20034;-92
2022/03/03 10:43:22;;;;;;;3.03;2.25;;;;;;;-145.06;0.00;60892.56;4840390;28;20431;-92
2022/03/03 10:46:02;;;;;;;3.28;2.33;;;;;;;-145.06;0.00;60892.56;4839660;28;20345;-90
2022/03/03 10:48:41;;;;;;;2.80;1.88;;;;;;;9.01;0.00;60892.56;4839581;28;20368;-91
2022/03/03 10:51:24;;;;;;;3.17;2.30;;;;;;;9.16;0.00;60892.56;4840067;28;20030;-89
2022/03/03 10:54:03;;;;;;;2.65;1.95;;;;;;;9.36;0.00;60892.56;4839747;28;20030;-91
2022/03/03 10:56:51;;;;;;;3.13;2.20;;;;;;;187.52;0.00;60892.56;4839776;28;20359;-92
2022/03/03 10:59:31;;;;;;;2.95;2.25;;;;;;;-145.06;0.00;60892.56;4840053;28;20033;-91
2022/03/03 11:02:10;;;;;;;;;;;;;;;-145.06;0.00;60892.56;4840630;28;20116;-91
2022/03/03 11:04:48;;;;;;;2.35;1.90;;;;;;;21.08;0.00;60892.56;4839680;28;19910;-89
2022/03/03 11:07:29;;;;;;;3.03;2.03;;;;;;;-145.06;0.00;60892.56;4839800;28;20057;-90
2022/03/03 11:10:13;;;;;;;3.47;2.35;;;;;;;10.48;0.00;60892.56;4839618;28;20033;-90
2022/03/03 11:12:52;;;;;;;2.95;2.35;;;;;;;10.64;0.00;60892.56;4839447;28;20026;-89
2022/03/03 11:15:32;;;;;;;2.80;1.98;;;;;;;-145.06;0.00;60892.56;4839435;28;20030;-90
2022/03/03 11:18:13;;;;;;;3.13;1.92;;;;;;;-145.06;0.00;60892.56;4840022;28;20037;-89
2022/03/03 11:20:52;;;;;;;3.33;2.13;;;;;;;-145.06;0.00;60892.56;4839147;28;20029;-91
2022/03/03 11:23:46;;;;;;;3.03;2.10;;;;;;;-145.06;0.00;60892.56;4839522;28;20539;-89
2022/03/03 11:26:27;;;;;;;2.60;1.90;;;;;;;-145.06;0.00;60892.56;4839751;28;20030;-89
2022/03/03 11:29:12;;;;;;;3.97;2.35;;;;;;;-145.06;0.00;60892.56;4839119;28;20034;-89
2022/03/03 11:32:03;;;;;;;3.42;2.20;;;;;;;-145.06;0.00;60892.56;4839440;28;20038;-90
2022/03/03 11:34:44;;;;;;;2.80;1.85;;;;;;;-145.06;0.00;60892.56;4838659;28;20026;-90
2022/03/03 11:37:24;;;;;;;2.70;1.83;;;;;;;-145.06;0.00;60892.56;4839004;28;20061;-91
2022/03/03 11:40:04;;;;;;;2.97;2.03;;;;;;;12.24;0.00;60892.56;4838859;28;20021;-91
2022/03/03 11:42:53;;;;;;;2.63;1.83;;;;;;;-145.06;0.00;60892.56;4838980;28;20026;-90
2022/03/03 11:45:34;;;;;;;3.92;2.10;;;;;;;-145.06;0.00;60892.56;4838727;28;20377;-89
2022/03/03 11:48:22;;;;;;;3.08;2.30;;;;;;;12.44;0.00;60892.56;4838610;28;20030;-89
2022/03/03 11:51:34;;;;;;;2.45;1.77;;;;;;;-145.06;0.00;60892.56;4839134;28;20026;-89
2022/03/03 11:54:14;;;;;;;2.28;1.65;;;;;;;-145.06;0.00;60892.56;4839242;28;20034;-90
2022/03/03 11:57:09;;;;;;;2.20;1.70;;;;;;;-145.06;0.00;60892.56;4839011;28;20026;-88
2022/03/03 11:59:48;;;;;;;2.95;1.75;;;;;;;-145.06;0.00;60892.56;4851043;28;20034;-90
2022/03/03 12:02:30;;;;;;;4.40;2.28;;;;;;;-145.06;0.00;60892.56;4859062;28;20033;-89
2022/03/03 12:05:40;;;;;;;2.45;1.65;;;;;;;-145.06;0.00;60892.56;4856941;28;20034;-89
2022/03/03 12:08:19;;;;;;;3.08;1.98;;;;;;;-145.06;0.00;60892.56;4832837;28;20041;-91
2022/03/03 12:11:05;;;;;;;2.95;1.70;;;;;;;-145.06;0.00;60892.56;4838620;28;20068;-90
2022/03/03 12:13:51;;;;;;;2.00;1.63;;;;;;;-145.06;0.00;60892.56;4838566;28;20034;-89
2022/03/03 12:16:33;;;;;;;2.70;1.92;;;;;;;-145.06;0.00;60892.56;4837896;28;20683;-90
2022/03/03 12:19:13;;;;;;;2.63;1.92;;;;;;;-145.06;0.00;60892.56;4828745;28;20034;-90
2022/03/03 12:22:01;;;;;;;2.72;1.83;;;;;;;-145.06;0.00;60892.56;4835343;28;20381;-89
2022/03/03 12:24:41;;;;;;;2.58;1.88;;;;;;;-145.06;0.00;60892.56;4836962;28;20026;-91
2022/03/03 12:27:20;;;;;;;2.55;1.80;;;;;;;-145.06;0.00;60892.56;4838068;28;20026;-90
2022/03/03 12:30:07;;;;;;;1.93;1.70;;;;;;;-145.06;0.00;60892.56;4838257;28;20029;-90
2022/03/03 12:32:46;;;;;;;2.20;1.63;;;;;;;-145.06;0.00;60892.56;4838416;28;20273;-90